sensor_id;sensor_type;location;lat;lon;timestamp;temperature;humidity
18753;DHT22;9505;50.882;5.350;2023-05-20T00:01:52;14.20;99.90
18753;DHT22;9505;50.882;5.350;2023-05-20T00:04:18;14.20;99.90
18753;DHT22;9505;50.882;5.350;2023-05-20T00:06:43;14.10;99.90
18753;DHT22;9505;50.882;5.350;2023-05-20T00:09:09;14.10;99.90
18753;DHT22;9505;50.882;5.350;2023-05-20T00:11:35;14.10;99.90
18753;DHT22;9505;50.882;5.350;2023-05-20T00:14:00;14.00;99.90
18753;DHT22;9505;50.882;5.350;2023-05-20T00:16:26;14.00;99.90
18753;DHT22;9505;50.882;5.350;2023-05-20T00:18:52;13.90;99.90
18753;DHT22;9505;50.882;5.350;2023-05-20T00:21:17;13.90;99.90
18753;DHT22;9505;50.882;5.350;2023-05-20T00:23:43;13.90;99.90
18753;DHT22;9505;50.882;5.350;2023-05-20T00:26:09;13.80;99.90
18753;DHT22;9505;50.882;5.350;2023-05-20T00:28:35;13.80;99.90
18753;DHT22;9505;50.882;5.350;2023-05-20T00:31:00;13.70;99.90
18753;DHT22;9505;50.882;5.350;2023-05-20T00:33:26;13.70;99.90
18753;DHT22;9505;50.882;5.350;2023-05-20T00:35:52;13.70;99.90
18753;DHT22;9505;50.882;5.350;2023-05-20T00:38:17;13.60;99.90
18753;DHT22;9505;50.882;5.350;2023-05-20T00:40:43;13.50;99.90
18753;DHT22;9505;50.882;5.350;2023-05-20T00:43:09;13.60;99.90
18753;DHT22;9505;50.882;5.350;2023-05-20T00:45:36;13.50;99.90
18753;DHT22;9505;50.882;5.350;2023-05-20T00:48:02;13.50;99.90
18753;DHT22;9505;50.882;5.350;2023-05-20T00:50:28;13.50;99.90
18753;DHT22;9505;50.882;5.350;2023-05-20T00:52:54;13.50;99.90
18753;DHT22;9505;50.882;5.350;2023-05-20T00:55:21;13.40;99.90
18753;DHT22;9505;50.882;5.350;2023-05-20T00:57:48;13.30;99.90
18753;DHT22;9505;50.882;5.350;2023-05-20T01:00:14;13.30;99.90
18753;DHT22;9505;50.882;5.350;2023-05-20T01:02:39;13.30;99.90
18753;DHT22;9505;50.882;5.350;2023-05-20T01:05:05;13.30;99.90
18753;DHT22;9505;50.882;5.350;2023-05-20T01:07:32;13.20;99.90
18753;DHT22;9505;50.882;5.350;2023-05-20T01:09:58;13.20;99.90
18753;DHT22;9505;50.882;5.350;2023-05-20T01:12:30;13.10;99.90
18753;DHT22;9505;50.882;5.350;2023-05-20T01:15:00;13.10;99.90
18753;DHT22;9505;50.882;5.350;2023-05-20T01:17:30;13.00;99.90
18753;DHT22;9505;50.882;5.350;2023-05-20T01:19:58;13.00;99.90
18753;DHT22;9505;50.882;5.350;2023-05-20T01:22:28;13.00;99.90
18753;DHT22;9505;50.882;5.350;2023-05-20T01:24:54;12.90;99.90
18753;DHT22;9505;50.882;5.350;2023-05-20T01:27:22;12.90;99.90
18753;DHT22;9505;50.882;5.350;2023-05-20T01:29:49;12.80;99.90
18753;DHT22;9505;50.882;5.350;2023-05-20T01:32:31;12.70;99.90
18753;DHT22;9505;50.882;5.350;2023-05-20T01:34:59;12.70;99.90
18753;DHT22;9505;50.882;5.350;2023-05-20T01:37:26;12.70;99.90
18753;DHT22;9505;50.882;5.350;2023-05-20T01:39:53;12.60;99.90
18753;DHT22;9505;50.882;5.350;2023-05-20T01:42:19;12.60;99.90
18753;DHT22;9505;50.882;5.350;2023-05-20T01:44:45;12.50;99.90
18753;DHT22;9505;50.882;5.350;2023-05-20T01:47:11;12.50;99.90
18753;DHT22;9505;50.882;5.350;2023-05-20T01:49:37;12.40;99.90
18753;DHT22;9505;50.882;5.350;2023-05-20T01:52:03;12.40;99.90
18753;DHT22;9505;50.882;5.350;2023-05-20T01:54:29;12.40;99.90
18753;DHT22;9505;50.882;5.350;2023-05-20T01:56:55;12.30;99.90
18753;DHT22;9505;50.882;5.350;2023-05-20T01:59:20;12.30;99.90
18753;DHT22;9505;50.882;5.350;2023-05-20T02:01:46;12.30;99.90
18753;DHT22;9505;50.882;5.350;2023-05-20T02:04:12;12.20;99.90
18753;DHT22;9505;50.882;5.350;2023-05-20T02:06:37;12.20;99.90
18753;DHT22;9505;50.882;5.350;2023-05-20T02:09:03;12.20;99.90
18753;DHT22;9505;50.882;5.350;2023-05-20T02:11:29;12.10;99.90
18753;DHT22;9505;50.882;5.350;2023-05-20T02:13:55;12.10;99.90
18753;DHT22;9505;50.882;5.350;2023-05-20T02:16:20;12.00;99.90
18753;DHT22;9505;50.882;5.350;2023-05-20T02:18:46;12.00;99.90
18753;DHT22;9505;50.882;5.350;2023-05-20T02:21:12;11.90;99.90
18753;DHT22;9505;50.882;5.350;2023-05-20T02:23:37;11.90;99.90
18753;DHT22;9505;50.882;5.350;2023-05-20T02:26:03;11.90;99.90
18753;DHT22;9505;50.882;5.350;2023-05-20T02:28:29;11.80;99.90
18753;DHT22;9505;50.882;5.350;2023-05-20T02:30:55;11.80;99.90
18753;DHT22;9505;50.882;5.350;2023-05-20T02:33:20;11.80;99.90
18753;DHT22;9505;50.882;5.350;2023-05-20T02:35:46;11.70;99.90
18753;DHT22;9505;50.882;5.350;2023-05-20T02:38:12;11.70;99.90
18753;DHT22;9505;50.882;5.350;2023-05-20T02:40:37;11.70;99.90
18753;DHT22;9505;50.882;5.350;2023-05-20T02:43:03;11.60;99.90
18753;DHT22;9505;50.882;5.350;2023-05-20T02:45:29;11.60;99.90
18753;DHT22;9505;50.882;5.350;2023-05-20T02:47:55;11.60;99.90
18753;DHT22;9505;50.882;5.350;2023-05-20T02:50:21;11.60;99.90
18753;DHT22;9505;50.882;5.350;2023-05-20T02:52:46;11.50;99.90
18753;DHT22;9505;50.882;5.350;2023-05-20T02:55:13;11.50;99.90
18753;DHT22;9505;50.882;5.350;2023-05-20T02:57:39;11.40;99.90
18753;DHT22;9505;50.882;5.350;2023-05-20T03:00:05;11.40;99.90
18753;DHT22;9505;50.882;5.350;2023-05-20T03:02:32;11.40;99.90
18753;DHT22;9505;50.882;5.350;2023-05-20T03:04:58;11.40;99.90
18753;DHT22;9505;50.882;5.350;2023-05-20T03:07:24;11.40;99.90
18753;DHT22;9505;50.882;5.350;2023-05-20T03:09:50;11.40;99.90
18753;DHT22;9505;50.882;5.350;2023-05-20T03:12:16;11.40;99.90
18753;DHT22;9505;50.882;5.350;2023-05-20T03:14:42;11.40;99.90
18753;DHT22;9505;50.882;5.350;2023-05-20T03:17:08;11.40;99.90
18753;DHT22;9505;50.882;5.350;2023-05-20T03:19:34;11.30;99.90
18753;DHT22;9505;50.882;5.350;2023-05-20T03:22:00;11.30;99.90
18753;DHT22;9505;50.882;5.350;2023-05-20T03:24:26;11.30;99.90
18753;DHT22;9505;50.882;5.350;2023-05-20T03:26:52;11.30;99.90
18753;DHT22;9505;50.882;5.350;2023-05-20T03:29:18;11.30;99.90
18753;DHT22;9505;50.882;5.350;2023-05-20T03:31:43;11.30;99.90
18753;DHT22;9505;50.882;5.350;2023-05-20T03:34:09;11.30;99.90
18753;DHT22;9505;50.882;5.350;2023-05-20T03:36:35;11.20;99.90
18753;DHT22;9505;50.882;5.350;2023-05-20T03:39:00;11.20;99.90
18753;DHT22;9505;50.882;5.350;2023-05-20T03:41:27;11.20;99.90
18753;DHT22;9505;50.882;5.350;2023-05-20T03:43:52;11.10;99.90
18753;DHT22;9505;50.882;5.350;2023-05-20T03:46:18;11.10;99.90
18753;DHT22;9505;50.882;5.350;2023-05-20T03:48:44;11.10;99.90
18753;DHT22;9505;50.882;5.350;2023-05-20T03:51:09;11.20;99.90
18753;DHT22;9505;50.882;5.350;2023-05-20T03:53:35;11.20;99.90
18753;DHT22;9505;50.882;5.350;2023-05-20T03:56:01;11.10;99.90
18753;DHT22;9505;50.882;5.350;2023-05-20T03:58:26;11.20;99.90
18753;DHT22;9505;50.882;5.350;2023-05-20T04:00:54;11.10;99.90
18753;DHT22;9505;50.882;5.350;2023-05-20T04:03:20;11.20;99.90
18753;DHT22;9505;50.882;5.350;2023-05-20T04:05:47;11.20;99.90
18753;DHT22;9505;50.882;5.350;2023-05-20T04:08:13;11.20;99.90
18753;DHT22;9505;50.882;5.350;2023-05-20T04:10:41;11.20;99.90
18753;DHT22;9505;50.882;5.350;2023-05-20T04:13:07;11.20;99.90
18753;DHT22;9505;50.882;5.350;2023-05-20T04:15:37;11.20;99.90
18753;DHT22;9505;50.882;5.350;2023-05-20T04:18:04;11.20;99.90
18753;DHT22;9505;50.882;5.350;2023-05-20T04:20:32;11.20;99.90
18753;DHT22;9505;50.882;5.350;2023-05-20T04:22:58;11.20;99.90
18753;DHT22;9505;50.882;5.350;2023-05-20T04:25:23;11.20;99.90
18753;DHT22;9505;50.882;5.350;2023-05-20T04:27:50;11.30;99.90
18753;DHT22;9505;50.882;5.350;2023-05-20T04:30:18;11.30;99.90
18753;DHT22;9505;50.882;5.350;2023-05-20T04:32:46;11.40;99.90
18753;DHT22;9505;50.882;5.350;2023-05-20T04:35:12;11.40;99.90
18753;DHT22;9505;50.882;5.350;2023-05-20T04:37:39;11.50;99.90
18753;DHT22;9505;50.882;5.350;2023-05-20T04:40:07;11.60;99.90
18753;DHT22;9505;50.882;5.350;2023-05-20T04:42:33;11.70;99.90
18753;DHT22;9505;50.882;5.350;2023-05-20T04:44:59;11.80;99.90
18753;DHT22;9505;50.882;5.350;2023-05-20T04:47:30;11.80;99.90
18753;DHT22;9505;50.882;5.350;2023-05-20T04:49:56;11.80;99.90
18753;DHT22;9505;50.882;5.350;2023-05-20T04:52:22;11.90;99.90
18753;DHT22;9505;50.882;5.350;2023-05-20T04:54:48;12.00;99.90
18753;DHT22;9505;50.882;5.350;2023-05-20T04:57:15;12.10;99.90
18753;DHT22;9505;50.882;5.350;2023-05-20T04:59:42;12.10;99.90
18753;DHT22;9505;50.882;5.350;2023-05-20T05:02:09;12.20;99.90
18753;DHT22;9505;50.882;5.350;2023-05-20T05:04:35;12.30;99.90
18753;DHT22;9505;50.882;5.350;2023-05-20T05:07:01;12.40;99.90
18753;DHT22;9505;50.882;5.350;2023-05-20T05:09:26;12.40;99.90
18753;DHT22;9505;50.882;5.350;2023-05-20T05:11:52;12.50;99.90
18753;DHT22;9505;50.882;5.350;2023-05-20T05:14:18;12.60;99.90
18753;DHT22;9505;50.882;5.350;2023-05-20T05:16:43;12.70;99.90
18753;DHT22;9505;50.882;5.350;2023-05-20T05:19:09;12.90;99.90
18753;DHT22;9505;50.882;5.350;2023-05-20T05:21:35;13.00;99.90
18753;DHT22;9505;50.882;5.350;2023-05-20T05:24:00;13.10;99.90
18753;DHT22;9505;50.882;5.350;2023-05-20T05:26:26;13.20;99.90
18753;DHT22;9505;50.882;5.350;2023-05-20T05:28:53;13.40;99.90
18753;DHT22;9505;50.882;5.350;2023-05-20T05:31:19;13.60;99.90
18753;DHT22;9505;50.882;5.350;2023-05-20T05:33:45;14.80;99.90
18753;DHT22;9505;50.882;5.350;2023-05-20T05:36:10;17.20;99.90
18753;DHT22;9505;50.882;5.350;2023-05-20T05:38:36;19.10;99.90
18753;DHT22;9505;50.882;5.350;2023-05-20T05:41:02;20.30;99.90
18753;DHT22;9505;50.882;5.350;2023-05-20T05:43:27;21.50;99.90
18753;DHT22;9505;50.882;5.350;2023-05-20T05:45:53;22.40;99.90
18753;DHT22;9505;50.882;5.350;2023-05-20T05:48:19;23.60;99.90
18753;DHT22;9505;50.882;5.350;2023-05-20T05:50:45;24.40;98.10
18753;DHT22;9505;50.882;5.350;2023-05-20T05:53:11;24.50;96.80
18753;DHT22;9505;50.882;5.350;2023-05-20T05:55:37;25.20;95.50
18753;DHT22;9505;50.882;5.350;2023-05-20T05:58:02;25.40;94.20
18753;DHT22;9505;50.882;5.350;2023-05-20T06:00:28;26.10;93.00
18753;DHT22;9505;50.882;5.350;2023-05-20T06:02:54;26.10;92.20
18753;DHT22;9505;50.882;5.350;2023-05-20T06:05:20;26.30;92.00
18753;DHT22;9505;50.882;5.350;2023-05-20T06:07:45;26.40;91.70
18753;DHT22;9505;50.882;5.350;2023-05-20T06:10:11;26.20;90.50
18753;DHT22;9505;50.882;5.350;2023-05-20T06:12:37;26.90;88.80
18753;DHT22;9505;50.882;5.350;2023-05-20T06:15:03;27.20;89.20
18753;DHT22;9505;50.882;5.350;2023-05-20T06:17:29;27.70;89.20
18753;DHT22;9505;50.882;5.350;2023-05-20T06:19:54;27.70;83.80
18753;DHT22;9505;50.882;5.350;2023-05-20T06:22:20;27.30;84.90
18753;DHT22;9505;50.882;5.350;2023-05-20T06:24:45;27.00;86.00
18753;DHT22;9505;50.882;5.350;2023-05-20T06:27:11;27.30;85.80
18753;DHT22;9505;50.882;5.350;2023-05-20T06:29:37;27.00;84.50
18753;DHT22;9505;50.882;5.350;2023-05-20T06:32:02;27.30;86.60
18753;DHT22;9505;50.882;5.350;2023-05-20T06:34:28;27.40;85.20
18753;DHT22;9505;50.882;5.350;2023-05-20T06:36:54;27.80;82.40
18753;DHT22;9505;50.882;5.350;2023-05-20T06:39:20;27.50;84.00
18753;DHT22;9505;50.882;5.350;2023-05-20T06:41:46;27.70;82.20
18753;DHT22;9505;50.882;5.350;2023-05-20T06:44:12;27.30;82.80
18753;DHT22;9505;50.882;5.350;2023-05-20T06:46:37;26.90;84.40
18753;DHT22;9505;50.882;5.350;2023-05-20T06:49:03;27.10;84.30
18753;DHT22;9505;50.882;5.350;2023-05-20T06:51:29;27.30;82.90
18753;DHT22;9505;50.882;5.350;2023-05-20T06:53:55;27.20;82.90
18753;DHT22;9505;50.882;5.350;2023-05-20T06:56:20;27.60;82.30
18753;DHT22;9505;50.882;5.350;2023-05-20T06:58:46;27.70;80.80
18753;DHT22;9505;50.882;5.350;2023-05-20T07:01:12;27.60;81.50
18753;DHT22;9505;50.882;5.350;2023-05-20T07:03:39;27.90;80.20
18753;DHT22;9505;50.882;5.350;2023-05-20T07:06:05;27.30;81.00
18753;DHT22;9505;50.882;5.350;2023-05-20T07:08:30;27.60;82.50
18753;DHT22;9505;50.882;5.350;2023-05-20T07:10:56;27.90;81.40
18753;DHT22;9505;50.882;5.350;2023-05-20T07:13:22;28.00;81.60
18753;DHT22;9505;50.882;5.350;2023-05-20T07:15:48;28.30;82.20
18753;DHT22;9505;50.882;5.350;2023-05-20T07:18:14;28.60;82.60
18753;DHT22;9505;50.882;5.350;2023-05-20T07:20:40;28.40;80.10
18753;DHT22;9505;50.882;5.350;2023-05-20T07:23:06;28.40;78.40
18753;DHT22;9505;50.882;5.350;2023-05-20T07:25:31;28.40;79.10
18753;DHT22;9505;50.882;5.350;2023-05-20T07:27:57;28.80;78.40
18753;DHT22;9505;50.882;5.350;2023-05-20T07:30:25;28.70;79.50
18753;DHT22;9505;50.882;5.350;2023-05-20T07:32:51;29.00;77.50
18753;DHT22;9505;50.882;5.350;2023-05-20T07:35:16;29.00;76.40
18753;DHT22;9505;50.882;5.350;2023-05-20T07:37:42;28.10;79.80
18753;DHT22;9505;50.882;5.350;2023-05-20T07:40:08;27.50;80.10
18753;DHT22;9505;50.882;5.350;2023-05-20T07:42:34;27.70;82.80
18753;DHT22;9505;50.882;5.350;2023-05-20T07:45:00;27.80;79.40
18753;DHT22;9505;50.882;5.350;2023-05-20T07:47:26;27.60;79.50
18753;DHT22;9505;50.882;5.350;2023-05-20T07:49:51;27.70;82.00
18753;DHT22;9505;50.882;5.350;2023-05-20T07:52:17;28.20;79.20
18753;DHT22;9505;50.882;5.350;2023-05-20T07:54:43;27.90;80.40
18753;DHT22;9505;50.882;5.350;2023-05-20T07:57:08;26.90;78.80
18753;DHT22;9505;50.882;5.350;2023-05-20T07:59:34;25.80;81.30
18753;DHT22;9505;50.882;5.350;2023-05-20T08:02:00;24.80;84.90
18753;DHT22;9505;50.882;5.350;2023-05-20T08:04:25;23.50;87.50
18753;DHT22;9505;50.882;5.350;2023-05-20T08:06:52;22.50;91.20
18753;DHT22;9505;50.882;5.350;2023-05-20T08:09:18;22.20;92.60
18753;DHT22;9505;50.882;5.350;2023-05-20T08:11:44;22.00;93.70
18753;DHT22;9505;50.882;5.350;2023-05-20T08:14:09;21.80;93.90
18753;DHT22;9505;50.882;5.350;2023-05-20T08:16:35;21.60;94.00
18753;DHT22;9505;50.882;5.350;2023-05-20T08:19:02;21.40;95.90
18753;DHT22;9505;50.882;5.350;2023-05-20T08:21:27;21.80;96.00
18753;DHT22;9505;50.882;5.350;2023-05-20T08:23:53;21.80;96.00
18753;DHT22;9505;50.882;5.350;2023-05-20T08:26:19;21.70;96.10
18753;DHT22;9505;50.882;5.350;2023-05-20T08:28:46;21.50;95.20
18753;DHT22;9505;50.882;5.350;2023-05-20T08:31:12;21.70;96.10
18753;DHT22;9505;50.882;5.350;2023-05-20T08:33:38;22.00;96.10
18753;DHT22;9505;50.882;5.350;2023-05-20T08:36:05;22.30;95.80
18753;DHT22;9505;50.882;5.350;2023-05-20T08:38:30;22.60;97.60
18753;DHT22;9505;50.882;5.350;2023-05-20T08:40:57;22.70;97.30
18753;DHT22;9505;50.882;5.350;2023-05-20T08:43:23;22.70;96.80
18753;DHT22;9505;50.882;5.350;2023-05-20T08:45:49;22.40;97.20
18753;DHT22;9505;50.882;5.350;2023-05-20T08:48:17;22.60;98.70
18753;DHT22;9505;50.882;5.350;2023-05-20T08:50:45;22.80;96.40
18753;DHT22;9505;50.882;5.350;2023-05-20T08:53:14;22.50;95.20
18753;DHT22;9505;50.882;5.350;2023-05-20T08:55:48;22.20;97.10
18753;DHT22;9505;50.882;5.350;2023-05-20T08:58:17;22.30;97.40
18753;DHT22;9505;50.882;5.350;2023-05-20T09:00:44;22.60;98.30
18753;DHT22;9505;50.882;5.350;2023-05-20T09:03:09;22.50;96.90
18753;DHT22;9505;50.882;5.350;2023-05-20T09:05:35;21.90;99.60
18753;DHT22;9505;50.882;5.350;2023-05-20T09:08:09;21.90;97.60
18753;DHT22;9505;50.882;5.350;2023-05-20T09:10:37;21.60;96.50
18753;DHT22;9505;50.882;5.350;2023-05-20T09:13:04;21.90;99.40
18753;DHT22;9505;50.882;5.350;2023-05-20T09:15:30;22.50;99.10
18753;DHT22;9505;50.882;5.350;2023-05-20T09:17:59;22.30;97.40
18753;DHT22;9505;50.882;5.350;2023-05-20T09:20:27;22.00;98.40
18753;DHT22;9505;50.882;5.350;2023-05-20T09:23:00;22.00;97.60
18753;DHT22;9505;50.882;5.350;2023-05-20T09:25:26;22.60;99.90
18753;DHT22;9505;50.882;5.350;2023-05-20T09:27:52;23.00;97.90
18753;DHT22;9505;50.882;5.350;2023-05-20T09:30:19;23.20;96.50
18753;DHT22;9505;50.882;5.350;2023-05-20T09:32:52;23.00;95.10
18753;DHT22;9505;50.882;5.350;2023-05-20T09:35:18;22.20;97.60
18753;DHT22;9505;50.882;5.350;2023-05-20T09:40:38;22.20;97.60
18753;DHT22;9505;50.882;5.350;2023-05-20T09:43:07;21.80;98.90
18753;DHT22;9505;50.882;5.350;2023-05-20T09:45:36;22.00;98.40
18753;DHT22;9505;50.882;5.350;2023-05-20T09:48:11;22.30;97.90
18753;DHT22;9505;50.882;5.350;2023-05-20T09:50:38;22.50;98.40
18753;DHT22;9505;50.882;5.350;2023-05-20T09:53:09;22.90;98.10
18753;DHT22;9505;50.882;5.350;2023-05-20T09:55:38;23.10;97.70
18753;DHT22;9505;50.882;5.350;2023-05-20T09:58:12;23.00;99.10
18753;DHT22;9505;50.882;5.350;2023-05-20T10:00:41;23.00;97.50
18753;DHT22;9505;50.882;5.350;2023-05-20T10:03:07;23.10;97.10
18753;DHT22;9505;50.882;5.350;2023-05-20T10:05:47;23.20;98.50
18753;DHT22;9505;50.882;5.350;2023-05-20T10:09:00;23.20;97.80
18753;DHT22;9505;50.882;5.350;2023-05-20T10:14:38;22.90;97.60
18753;DHT22;9505;50.882;5.350;2023-05-20T10:17:14;22.50;98.90
18753;DHT22;9505;50.882;5.350;2023-05-20T10:19:41;22.50;99.70
18753;DHT22;9505;50.882;5.350;2023-05-20T10:22:08;22.70;99.50
18753;DHT22;9505;50.882;5.350;2023-05-20T10:24:35;23.10;98.70
18753;DHT22;9505;50.882;5.350;2023-05-20T10:27:04;23.20;97.30
18753;DHT22;9505;50.882;5.350;2023-05-20T10:29:52;23.30;98.40
18753;DHT22;9505;50.882;5.350;2023-05-20T10:32:31;23.20;98.40
18753;DHT22;9505;50.882;5.350;2023-05-20T10:34:59;23.40;97.50
18753;DHT22;9505;50.882;5.350;2023-05-20T10:37:28;23.10;98.00
18753;DHT22;9505;50.882;5.350;2023-05-20T10:42:33;23.50;98.00
18753;DHT22;9505;50.882;5.350;2023-05-20T10:44:59;23.50;97.10
18753;DHT22;9505;50.882;5.350;2023-05-20T10:47:25;23.40;98.00
18753;DHT22;9505;50.882;5.350;2023-05-20T10:49:51;23.50;98.40
18753;DHT22;9505;50.882;5.350;2023-05-20T10:52:17;23.60;98.60
18753;DHT22;9505;50.882;5.350;2023-05-20T10:54:53;23.70;98.40
18753;DHT22;9505;50.882;5.350;2023-05-20T10:57:19;23.30;99.30
18753;DHT22;9505;50.882;5.350;2023-05-20T10:59:46;23.40;98.60
18753;DHT22;9505;50.882;5.350;2023-05-20T11:02:14;23.90;96.80
18753;DHT22;9505;50.882;5.350;2023-05-20T11:04:42;23.70;96.60
18753;DHT22;9505;50.882;5.350;2023-05-20T11:07:08;23.40;99.30
18753;DHT22;9505;50.882;5.350;2023-05-20T11:09:34;23.40;98.70
18753;DHT22;9505;50.882;5.350;2023-05-20T11:12:00;23.90;99.90
18753;DHT22;9505;50.882;5.350;2023-05-20T11:14:28;24.80;99.10
18753;DHT22;9505;50.882;5.350;2023-05-20T11:16:58;25.10;96.70
18753;DHT22;9505;50.882;5.350;2023-05-20T11:19:24;25.00;95.50
18753;DHT22;9505;50.882;5.350;2023-05-20T11:21:51;25.20;95.80
18753;DHT22;9505;50.882;5.350;2023-05-20T11:24:27;24.70;97.60
18753;DHT22;9505;50.882;5.350;2023-05-20T11:26:55;24.60;95.50
18753;DHT22;9505;50.882;5.350;2023-05-20T11:29:22;24.60;95.50
18753;DHT22;9505;50.882;5.350;2023-05-20T11:31:49;24.60;95.20
18753;DHT22;9505;50.882;5.350;2023-05-20T11:34:21;24.10;95.10
18753;DHT22;9505;50.882;5.350;2023-05-20T11:36:47;24.00;96.10
18753;DHT22;9505;50.882;5.350;2023-05-20T11:39:15;24.00;96.90
18753;DHT22;9505;50.882;5.350;2023-05-20T11:41:41;24.00;96.60
18753;DHT22;9505;50.882;5.350;2023-05-20T11:44:10;23.70;97.60
18753;DHT22;9505;50.882;5.350;2023-05-20T11:46:45;23.90;98.10
18753;DHT22;9505;50.882;5.350;2023-05-20T11:49:14;24.20;97.30
18753;DHT22;9505;50.882;5.350;2023-05-20T11:51:42;23.80;97.80
18753;DHT22;9505;50.882;5.350;2023-05-20T11:54:08;23.90;97.40
18753;DHT22;9505;50.882;5.350;2023-05-20T11:56:38;24.00;98.10
18753;DHT22;9505;50.882;5.350;2023-05-20T11:59:08;23.80;98.70
18753;DHT22;9505;50.882;5.350;2023-05-20T12:01:38;23.90;97.90
18753;DHT22;9505;50.882;5.350;2023-05-20T12:04:08;24.30;98.40
18753;DHT22;9505;50.882;5.350;2023-05-20T12:06:34;24.50;96.80
18753;DHT22;9505;50.882;5.350;2023-05-20T12:09:03;23.90;97.40
18753;DHT22;9505;50.882;5.350;2023-05-20T12:11:33;23.20;98.20
18753;DHT22;9505;50.882;5.350;2023-05-20T12:14:00;22.80;97.50
18753;DHT22;9505;50.882;5.350;2023-05-20T12:16:27;22.50;99.90
18753;DHT22;9505;50.882;5.350;2023-05-20T12:18:53;22.70;99.90
18753;DHT22;9505;50.882;5.350;2023-05-20T12:21:18;23.00;99.20
18753;DHT22;9505;50.882;5.350;2023-05-20T12:23:44;22.70;98.90
18753;DHT22;9505;50.882;5.350;2023-05-20T12:26:10;22.50;99.90
18753;DHT22;9505;50.882;5.350;2023-05-20T12:28:35;23.10;99.90
18753;DHT22;9505;50.882;5.350;2023-05-20T12:31:01;24.20;97.80
18753;DHT22;9505;50.882;5.350;2023-05-20T12:33:26;24.10;97.10
18753;DHT22;9505;50.882;5.350;2023-05-20T12:35:52;23.60;98.20
18753;DHT22;9505;50.882;5.350;2023-05-20T12:38:18;23.20;99.20
18753;DHT22;9505;50.882;5.350;2023-05-20T12:40:44;22.90;98.40
18753;DHT22;9505;50.882;5.350;2023-05-20T12:43:11;22.70;99.50
18753;DHT22;9505;50.882;5.350;2023-05-20T12:45:36;23.50;99.80
18753;DHT22;9505;50.882;5.350;2023-05-20T12:48:03;24.00;98.50
18753;DHT22;9505;50.882;5.350;2023-05-20T12:50:30;24.40;98.30
18753;DHT22;9505;50.882;5.350;2023-05-20T12:52:56;24.30;96.90
18753;DHT22;9505;50.882;5.350;2023-05-20T12:55:21;24.00;98.00
18753;DHT22;9505;50.882;5.350;2023-05-20T12:57:48;23.60;98.70
18753;DHT22;9505;50.882;5.350;2023-05-20T13:00:14;23.70;99.00
18753;DHT22;9505;50.882;5.350;2023-05-20T13:02:41;24.40;98.10
18753;DHT22;9505;50.882;5.350;2023-05-20T13:05:08;24.50;97.80
18753;DHT22;9505;50.882;5.350;2023-05-20T13:07:34;25.00;97.50
18753;DHT22;9505;50.882;5.350;2023-05-20T13:10:00;25.00;96.80
18753;DHT22;9505;50.882;5.350;2023-05-20T13:12:26;24.50;96.10
18753;DHT22;9505;50.882;5.350;2023-05-20T13:14:51;24.20;97.70
18753;DHT22;9505;50.882;5.350;2023-05-20T13:17:18;24.40;98.10
18753;DHT22;9505;50.882;5.350;2023-05-20T13:19:44;23.80;97.10
18753;DHT22;9505;50.882;5.350;2023-05-20T13:22:11;23.50;99.90
18753;DHT22;9505;50.882;5.350;2023-05-20T13:24:37;23.90;99.90
18753;DHT22;9505;50.882;5.350;2023-05-20T13:27:03;24.80;98.50
18753;DHT22;9505;50.882;5.350;2023-05-20T13:29:30;25.00;95.70
18753;DHT22;9505;50.882;5.350;2023-05-20T13:31:56;24.60;97.00
18753;DHT22;9505;50.882;5.350;2023-05-20T13:34:22;24.30;98.70
18753;DHT22;9505;50.882;5.350;2023-05-20T13:36:48;24.20;99.30
18753;DHT22;9505;50.882;5.350;2023-05-20T13:39:14;23.90;98.30
18753;DHT22;9505;50.882;5.350;2023-05-20T13:41:40;23.60;99.20
18753;DHT22;9505;50.882;5.350;2023-05-20T13:44:06;23.50;99.10
18753;DHT22;9505;50.882;5.350;2023-05-20T13:46:32;23.60;99.90
18753;DHT22;9505;50.882;5.350;2023-05-20T13:48:57;23.50;99.20
18753;DHT22;9505;50.882;5.350;2023-05-20T13:51:23;23.60;99.80
18753;DHT22;9505;50.882;5.350;2023-05-20T13:53:49;24.50;99.90
18753;DHT22;9505;50.882;5.350;2023-05-20T13:56:15;25.90;99.00
18753;DHT22;9505;50.882;5.350;2023-05-20T13:58:41;26.50;96.70
18753;DHT22;9505;50.882;5.350;2023-05-20T14:01:07;25.80;96.60
18753;DHT22;9505;50.882;5.350;2023-05-20T14:03:33;24.90;96.20
18753;DHT22;9505;50.882;5.350;2023-05-20T14:06:00;24.70;97.20
18753;DHT22;9505;50.882;5.350;2023-05-20T14:08:26;24.90;98.10
18753;DHT22;9505;50.882;5.350;2023-05-20T14:10:52;24.70;98.00
18753;DHT22;9505;50.882;5.350;2023-05-20T14:13:23;24.10;97.90
18753;DHT22;9505;50.882;5.350;2023-05-20T14:15:49;24.00;98.60
18753;DHT22;9505;50.882;5.350;2023-05-20T14:18:18;23.90;99.70
18753;DHT22;9505;50.882;5.350;2023-05-20T14:20:44;23.90;99.10
18753;DHT22;9505;50.882;5.350;2023-05-20T14:23:11;24.20;98.20
18753;DHT22;9505;50.882;5.350;2023-05-20T14:25:37;24.80;97.70
18753;DHT22;9505;50.882;5.350;2023-05-20T14:28:04;25.00;99.30
18753;DHT22;9505;50.882;5.350;2023-05-20T14:30:30;24.60;98.60
18753;DHT22;9505;50.882;5.350;2023-05-20T14:32:55;24.60;98.90
18753;DHT22;9505;50.882;5.350;2023-05-20T14:35:21;24.80;98.20
18753;DHT22;9505;50.882;5.350;2023-05-20T14:37:47;24.80;97.80
18753;DHT22;9505;50.882;5.350;2023-05-20T14:40:13;25.20;98.40
18753;DHT22;9505;50.882;5.350;2023-05-20T14:42:39;26.00;98.00
18753;DHT22;9505;50.882;5.350;2023-05-20T14:45:05;26.20;96.00
18753;DHT22;9505;50.882;5.350;2023-05-20T14:47:32;25.80;97.00
18753;DHT22;9505;50.882;5.350;2023-05-20T14:49:57;25.60;96.30
18753;DHT22;9505;50.882;5.350;2023-05-20T14:52:23;25.60;96.00
18753;DHT22;9505;50.882;5.350;2023-05-20T14:54:49;25.60;97.10
18753;DHT22;9505;50.882;5.350;2023-05-20T14:57:15;26.10;95.60
18753;DHT22;9505;50.882;5.350;2023-05-20T14:59:41;25.80;96.70
18753;DHT22;9505;50.882;5.350;2023-05-20T15:02:07;26.20;96.40
18753;DHT22;9505;50.882;5.350;2023-05-20T15:04:33;26.60;94.90
18753;DHT22;9505;50.882;5.350;2023-05-20T15:06:59;26.40;96.50
18753;DHT22;9505;50.882;5.350;2023-05-20T15:09:25;25.20;96.30
18753;DHT22;9505;50.882;5.350;2023-05-20T15:11:51;24.70;97.80
18753;DHT22;9505;50.882;5.350;2023-05-20T15:14:17;24.80;96.90
18753;DHT22;9505;50.882;5.350;2023-05-20T15:16:46;24.90;97.40
18753;DHT22;9505;50.882;5.350;2023-05-20T15:19:14;24.30;98.90
18753;DHT22;9505;50.882;5.350;2023-05-20T15:21:41;24.30;99.50
18753;DHT22;9505;50.882;5.350;2023-05-20T15:24:08;24.20;99.00
18753;DHT22;9505;50.882;5.350;2023-05-20T15:26:34;24.00;99.80
18753;DHT22;9505;50.882;5.350;2023-05-20T15:29:00;24.30;99.90
18753;DHT22;9505;50.882;5.350;2023-05-20T15:31:26;24.50;98.30
18753;DHT22;9505;50.882;5.350;2023-05-20T15:33:52;24.70;98.90
18753;DHT22;9505;50.882;5.350;2023-05-20T15:36:18;24.70;98.40
18753;DHT22;9505;50.882;5.350;2023-05-20T15:38:44;24.40;97.60
18753;DHT22;9505;50.882;5.350;2023-05-20T15:41:10;23.90;99.00
18753;DHT22;9505;50.882;5.350;2023-05-20T15:43:38;23.50;99.90
18753;DHT22;9505;50.882;5.350;2023-05-20T15:46:04;23.20;99.90
18753;DHT22;9505;50.882;5.350;2023-05-20T15:48:29;23.00;99.90
18753;DHT22;9505;50.882;5.350;2023-05-20T15:50:55;23.00;99.90